Relevés stations proches


LFBH - La Rochelle, Charente Maritime
Mise à jour: 23/04/2018 21:00
Clair
Clair
 Wind from NO
Vent: NO 17 km/h
Température: 13°C
Point de rosée: 9°C
Humidité: 77%
Baromètre: 1022 hPa
Ciel: Clair
Visibilité: Supérieure à 10 km
2018/04/23 21:00 LFBH 232100Z AUTO 32009KT CAVOK 13/09 Q1022 NOSIG
LFBC - Cognac, Charente
Mise à jour: 23/04/2018 21:00
Clair
Clair
 Wind from N
Vent: N 9 km/h
Température: 13°C
Point de rosée: 12°C
Humidité: 94%
Baromètre: 1022 hPa
Ciel: Clair
Visibilité: Supérieure à 10 km
2018/04/23 21:00 LFBC 232100Z AUTO 35005KT CAVOK 13/12 Q1022
 
LFBU - Angoulème, Charente
Mise à jour: 23/04/2018 21:00
Clair
Clair
 Wind from NO
Vent: NO 9 km/h
Température: 13°C
Point de rosée: 10°C
Humidité: 82%
Baromètre: 1021 hPa
Ciel: Clair
Visibilité: Supérieure à 10 km
2018/04/23 21:00 LFBU 232100Z AUTO 31005KT CAVOK 13/10 Q1021 NOSIG
LFRI - La Roche sur Yon, Vendée
Mise à jour: 23/04/2018 21:00
Clair
Clair
 Wind from O
Vent: O 7 km/h
Température: 10°C
Refroidissement éolien: 9°C
Point de rosée: 8°C
Humidité: 88%
Baromètre: 1022 hPa
Ciel: Clair
Visibilité: Supérieure à 10 km
2018/04/23 21:00 LFRI 232100Z AUTO 28004KT CAVOK 10/08 Q1022 NOSIG
 
LFBI - Poitiers, Vienne
Mise à jour: 23/04/2018 21:00
Clair
Clair
 Wind from SO
Vent: SO 6 km/h
Température: 12°C
Point de rosée: 10°C
Humidité: 88%
Baromètre: 1021 hPa
Ciel: Clair
Visibilité: Supérieure à 10 km
2018/04/23 21:00 LFBI 232100Z AUTO 23003KT CAVOK 12/10 Q1021 NOSIG
LFRS - Nantes, Loire Atlantique
Mise à jour: 23/04/2018 21:00
Clair
Clair
 Wind from O
Vent: O 6 km/h
Température: 10°C
Point de rosée: 8°C
Humidité: 88%
Baromètre: 1021 hPa
Ciel: Clair
Visibilité: Supérieure à 10 km
2018/04/23 21:00 LFRS 232100Z AUTO 26003KT CAVOK 10/08 Q1021 NOSIG
 
LFBD - Bordeaux, Gironde
Mise à jour: 23/04/2018 21:00
Clair
Clair
 Wind from NNO
Vent: NNO 9 km/h
Température: 14°C
Point de rosée: 12°C
Humidité: 88%
Baromètre: 1022 hPa
Ciel: Clair
Visibilité: Supérieure à 10 km
2018/04/23 21:00 LFBD 232100Z AUTO 33005KT CAVOK 14/12 Q1022 NOSIG
LFBL - Limoges, Haute Vienne
Mise à jour: 23/04/2018 21:00
Clair
Clair
 Wind from NO
Vent: NO 11 km/h
Température: 14°C
Point de rosée: 11°C
Humidité: 82%
Baromètre: 1021 hPa
Ciel: Clair
Visibilité: Supérieure à 10 km
2018/04/23 21:00 LFBL 232100Z AUTO 32006KT CAVOK 14/11 Q1021 NOSIG